sensor_id;sensor_type;location;lat;lon;timestamp;temperature;humidity
66035;HTU21D;52805;51.074;5.842;2022-10-16T00:01:13;15.68;84.44
66035;HTU21D;52805;51.074;5.842;2022-10-16T00:03:40;15.67;84.28
66035;HTU21D;52805;51.074;5.842;2022-10-16T00:06:08;15.67;84.19
66035;HTU21D;52805;51.074;5.842;2022-10-16T00:08:35;15.65;84.23
66035;HTU21D;52805;51.074;5.842;2022-10-16T00:11:07;15.63;84.26
66035;HTU21D;52805;51.074;5.842;2022-10-16T00:13:35;15.61;84.38
66035;HTU21D;52805;51.074;5.842;2022-10-16T00:16:02;15.63;84.16
66035;HTU21D;52805;51.074;5.842;2022-10-16T00:18:29;15.60;84.20
66035;HTU21D;52805;51.074;5.842;2022-10-16T00:21:01;15.61;84.13
66035;HTU21D;52805;51.074;5.842;2022-10-16T00:23:26;15.61;84.17
66035;HTU21D;52805;51.074;5.842;2022-10-16T00:26:02;15.61;84.10
66035;HTU21D;52805;51.074;5.842;2022-10-16T00:28:28;15.61;83.96
66035;HTU21D;52805;51.074;5.842;2022-10-16T00:30:54;15.61;83.81
66035;HTU21D;52805;51.074;5.842;2022-10-16T00:33:20;15.61;83.73
66035;HTU21D;52805;51.074;5.842;2022-10-16T00:35:46;15.60;83.62
66035;HTU21D;52805;51.074;5.842;2022-10-16T00:38:12;15.59;83.73
66035;HTU21D;52805;51.074;5.842;2022-10-16T00:40:38;15.59;83.52
66035;HTU21D;52805;51.074;5.842;2022-10-16T00:46:00;15.59;83.59
66035;HTU21D;52805;51.074;5.842;2022-10-16T00:48:27;15.59;83.52
66035;HTU21D;52805;51.074;5.842;2022-10-16T00:50:53;15.61;83.33
66035;HTU21D;52805;51.074;5.842;2022-10-16T00:53:19;15.61;83.24
66035;HTU21D;52805;51.074;5.842;2022-10-16T00:55:45;15.65;83.06
66035;HTU21D;52805;51.074;5.842;2022-10-16T00:58:11;15.65;83.04
66035;HTU21D;52805;51.074;5.842;2022-10-16T01:00:38;15.65;82.99
66035;HTU21D;52805;51.074;5.842;2022-10-16T01:03:29;15.63;83.04
66035;HTU21D;52805;51.074;5.842;2022-10-16T01:06:09;15.63;82.97
66035;HTU21D;52805;51.074;5.842;2022-10-16T01:11:34;15.60;83.05
66035;HTU21D;52805;51.074;5.842;2022-10-16T01:14:09;15.57;83.02
66035;HTU21D;52805;51.074;5.842;2022-10-16T01:19:43;15.52;83.09
66035;HTU21D;52805;51.074;5.842;2022-10-16T01:22:09;15.49;83.19
66035;HTU21D;52805;51.074;5.842;2022-10-16T01:24:41;15.48;83.20
66035;HTU21D;52805;51.074;5.842;2022-10-16T01:27:25;15.46;83.11
66035;HTU21D;52805;51.074;5.842;2022-10-16T01:32:24;15.41;83.29
66035;HTU21D;52805;51.074;5.842;2022-10-16T01:35:09;15.41;83.14
66035;HTU21D;52805;51.074;5.842;2022-10-16T01:40:26;15.37;83.30
66035;HTU21D;52805;51.074;5.842;2022-10-16T01:42:59;15.34;83.36
66035;HTU21D;52805;51.074;5.842;2022-10-16T01:45:28;15.33;83.33
66035;HTU21D;52805;51.074;5.842;2022-10-16T01:47:55;15.30;83.47
66035;HTU21D;52805;51.074;5.842;2022-10-16T01:50:22;15.32;83.41
66035;HTU21D;52805;51.074;5.842;2022-10-16T01:52:52;15.28;83.55
66035;HTU21D;52805;51.074;5.842;2022-10-16T01:55:29;15.26;83.61
66035;HTU21D;52805;51.074;5.842;2022-10-16T01:57:59;15.24;83.74
66035;HTU21D;52805;51.074;5.842;2022-10-16T02:00:26;15.25;83.66
66035;HTU21D;52805;51.074;5.842;2022-10-16T02:02:54;15.23;83.64
66035;HTU21D;52805;51.074;5.842;2022-10-16T02:05:33;15.23;83.71
66035;HTU21D;52805;51.074;5.842;2022-10-16T02:08:02;15.21;83.74
66035;HTU21D;52805;51.074;5.842;2022-10-16T02:10:28;15.19;83.77
66035;HTU21D;52805;51.074;5.842;2022-10-16T02:15:28;15.18;83.90
66035;HTU21D;52805;51.074;5.842;2022-10-16T02:17:53;15.19;83.86
66035;HTU21D;52805;51.074;5.842;2022-10-16T02:20:26;15.21;83.75
66035;HTU21D;52805;51.074;5.842;2022-10-16T02:22:54;15.22;83.78
66035;HTU21D;52805;51.074;5.842;2022-10-16T02:25:31;15.22;83.71
66035;HTU21D;52805;51.074;5.842;2022-10-16T02:28:07;15.19;83.78
66035;HTU21D;52805;51.074;5.842;2022-10-16T02:30:42;15.21;83.79
66035;HTU21D;52805;51.074;5.842;2022-10-16T02:33:12;15.16;83.90
66035;HTU21D;52805;51.074;5.842;2022-10-16T02:35:41;15.19;83.95
66035;HTU21D;52805;51.074;5.842;2022-10-16T02:38:09;15.19;83.86
66035;HTU21D;52805;51.074;5.842;2022-10-16T02:40:36;15.15;83.86
66035;HTU21D;52805;51.074;5.842;2022-10-16T02:43:04;15.16;83.87
66035;HTU21D;52805;51.074;5.842;2022-10-16T02:45:30;15.18;83.84
66035;HTU21D;52805;51.074;5.842;2022-10-16T02:47:56;15.17;83.96
66035;HTU21D;52805;51.074;5.842;2022-10-16T02:50:22;15.21;83.94
66035;HTU21D;52805;51.074;5.842;2022-10-16T02:52:47;15.21;83.90
66035;HTU21D;52805;51.074;5.842;2022-10-16T02:55:13;15.23;83.77
66035;HTU21D;52805;51.074;5.842;2022-10-16T02:57:39;15.22;83.82
66035;HTU21D;52805;51.074;5.842;2022-10-16T03:00:10;15.21;83.91
66035;HTU21D;52805;51.074;5.842;2022-10-16T03:02:36;15.19;84.00
66035;HTU21D;52805;51.074;5.842;2022-10-16T03:05:02;15.22;83.94
66035;HTU21D;52805;51.074;5.842;2022-10-16T03:07:28;15.21;83.98
66035;HTU21D;52805;51.074;5.842;2022-10-16T03:09:53;15.19;84.10
66035;HTU21D;52805;51.074;5.842;2022-10-16T03:12:21;15.19;84.16
66035;HTU21D;52805;51.074;5.842;2022-10-16T03:14:47;15.18;84.04
66035;HTU21D;52805;51.074;5.842;2022-10-16T03:17:13;15.16;84.19
66035;HTU21D;52805;51.074;5.842;2022-10-16T03:19:39;15.18;84.06
66035;HTU21D;52805;51.074;5.842;2022-10-16T03:22:04;15.13;84.07
66035;HTU21D;52805;51.074;5.842;2022-10-16T03:24:30;15.12;84.13
66035;HTU21D;52805;51.074;5.842;2022-10-16T03:26:56;15.11;84.22
66035;HTU21D;52805;51.074;5.842;2022-10-16T03:29:22;15.11;84.22
66035;HTU21D;52805;51.074;5.842;2022-10-16T03:31:47;15.11;84.16
66035;HTU21D;52805;51.074;5.842;2022-10-16T03:34:15;15.11;84.15
66035;HTU21D;52805;51.074;5.842;2022-10-16T03:36:40;15.10;84.20
66035;HTU21D;52805;51.074;5.842;2022-10-16T03:39:06;15.08;84.39
66035;HTU21D;52805;51.074;5.842;2022-10-16T03:41:32;15.11;84.21
66035;HTU21D;52805;51.074;5.842;2022-10-16T03:43:57;15.04;84.38
66035;HTU21D;52805;51.074;5.842;2022-10-16T03:46:23;15.08;84.34
66035;HTU21D;52805;51.074;5.842;2022-10-16T03:48:49;15.04;84.37
66035;HTU21D;52805;51.074;5.842;2022-10-16T03:51:14;15.04;84.33
66035;HTU21D;52805;51.074;5.842;2022-10-16T03:53:40;15.03;84.43
66035;HTU21D;52805;51.074;5.842;2022-10-16T03:56:06;15.03;84.41
66035;HTU21D;52805;51.074;5.842;2022-10-16T03:58:31;15.02;84.41
66035;HTU21D;52805;51.074;5.842;2022-10-16T04:00:57;15.04;84.30
66035;HTU21D;52805;51.074;5.842;2022-10-16T04:03:23;15.01;84.42
66035;HTU21D;52805;51.074;5.842;2022-10-16T04:05:49;15.02;84.42
66035;HTU21D;52805;51.074;5.842;2022-10-16T04:08:15;14.99;84.39
66035;HTU21D;52805;51.074;5.842;2022-10-16T04:10:44;14.97;84.43
66035;HTU21D;52805;51.074;5.842;2022-10-16T04:13:11;14.96;84.39
66035;HTU21D;52805;51.074;5.842;2022-10-16T04:15:37;14.95;84.59
66035;HTU21D;52805;51.074;5.842;2022-10-16T04:18:03;14.95;84.52
66035;HTU21D;52805;51.074;5.842;2022-10-16T04:20:29;14.94;84.58
66035;HTU21D;52805;51.074;5.842;2022-10-16T04:22:55;14.94;84.67
66035;HTU21D;52805;51.074;5.842;2022-10-16T04:25:21;14.95;84.68
66035;HTU21D;52805;51.074;5.842;2022-10-16T04:27:48;14.94;84.70
66035;HTU21D;52805;51.074;5.842;2022-10-16T04:30:13;14.94;84.63
66035;HTU21D;52805;51.074;5.842;2022-10-16T04:32:40;14.94;84.65
66035;HTU21D;52805;51.074;5.842;2022-10-16T04:35:06;14.92;84.70
66035;HTU21D;52805;51.074;5.842;2022-10-16T04:37:32;14.88;84.73
66035;HTU21D;52805;51.074;5.842;2022-10-16T04:39:58;14.88;84.75
66035;HTU21D;52805;51.074;5.842;2022-10-16T04:42:23;14.88;84.80
66035;HTU21D;52805;51.074;5.842;2022-10-16T04:44:49;14.87;84.83
66035;HTU21D;52805;51.074;5.842;2022-10-16T04:47:15;14.87;84.93
66035;HTU21D;52805;51.074;5.842;2022-10-16T04:49:40;14.86;84.96
66035;HTU21D;52805;51.074;5.842;2022-10-16T04:52:06;14.88;84.81
66035;HTU21D;52805;51.074;5.842;2022-10-16T04:54:31;14.88;84.91
66035;HTU21D;52805;51.074;5.842;2022-10-16T04:56:57;14.87;85.02
66035;HTU21D;52805;51.074;5.842;2022-10-16T04:59:23;14.87;84.99
66035;HTU21D;52805;51.074;5.842;2022-10-16T05:01:49;14.86;84.98
66035;HTU21D;52805;51.074;5.842;2022-10-16T05:04:14;14.86;85.01
66035;HTU21D;52805;51.074;5.842;2022-10-16T05:06:41;14.85;85.07
66035;HTU21D;52805;51.074;5.842;2022-10-16T05:09:08;14.85;85.11
66035;HTU21D;52805;51.074;5.842;2022-10-16T05:11:33;14.85;85.09
66035;HTU21D;52805;51.074;5.842;2022-10-16T05:13:59;14.82;85.19
66035;HTU21D;52805;51.074;5.842;2022-10-16T05:16:26;14.81;85.26
66035;HTU21D;52805;51.074;5.842;2022-10-16T05:18:52;14.80;85.26
66035;HTU21D;52805;51.074;5.842;2022-10-16T05:21:20;14.79;85.33
66035;HTU21D;52805;51.074;5.842;2022-10-16T05:23:45;14.74;85.51
66035;HTU21D;52805;51.074;5.842;2022-10-16T05:26:11;14.74;85.50
66035;HTU21D;52805;51.074;5.842;2022-10-16T05:28:37;14.73;85.70
66035;HTU21D;52805;51.074;5.842;2022-10-16T05:31:08;14.69;85.85
66035;HTU21D;52805;51.074;5.842;2022-10-16T05:33:34;14.68;86.00
66035;HTU21D;52805;51.074;5.842;2022-10-16T05:36:07;14.66;86.03
66035;HTU21D;52805;51.074;5.842;2022-10-16T05:38:34;14.65;86.13
66035;HTU21D;52805;51.074;5.842;2022-10-16T05:41:00;14.65;86.22
66035;HTU21D;52805;51.074;5.842;2022-10-16T05:43:28;14.67;86.06
66035;HTU21D;52805;51.074;5.842;2022-10-16T05:46:04;14.65;86.22
66035;HTU21D;52805;51.074;5.842;2022-10-16T05:48:32;14.64;86.22
66035;HTU21D;52805;51.074;5.842;2022-10-16T05:51:05;14.59;86.33
66035;HTU21D;52805;51.074;5.842;2022-10-16T05:53:34;14.60;86.37
66035;HTU21D;52805;51.074;5.842;2022-10-16T05:56:01;14.62;86.36
66035;HTU21D;52805;51.074;5.842;2022-10-16T05:58:32;14.62;86.39
66035;HTU21D;52805;51.074;5.842;2022-10-16T06:01:01;14.58;86.51
66035;HTU21D;52805;51.074;5.842;2022-10-16T06:03:27;14.58;86.57
66035;HTU21D;52805;51.074;5.842;2022-10-16T06:05:53;14.58;86.58
66035;HTU21D;52805;51.074;5.842;2022-10-16T06:08:20;14.56;86.64
66035;HTU21D;52805;51.074;5.842;2022-10-16T06:10:48;14.55;86.66
66035;HTU21D;52805;51.074;5.842;2022-10-16T06:13:15;14.57;86.64
66035;HTU21D;52805;51.074;5.842;2022-10-16T06:15:42;14.54;86.71
66035;HTU21D;52805;51.074;5.842;2022-10-16T06:18:09;14.57;86.61
66035;HTU21D;52805;51.074;5.842;2022-10-16T06:20:35;14.55;86.74
66035;HTU21D;52805;51.074;5.842;2022-10-16T06:23:01;14.55;86.80
66035;HTU21D;52805;51.074;5.842;2022-10-16T06:25:30;14.54;86.92
66035;HTU21D;52805;51.074;5.842;2022-10-16T06:27:56;14.54;86.75
66035;HTU21D;52805;51.074;5.842;2022-10-16T06:30:22;14.53;86.81
66035;HTU21D;52805;51.074;5.842;2022-10-16T06:32:47;14.52;86.83
66035;HTU21D;52805;51.074;5.842;2022-10-16T06:35:13;14.52;86.90
66035;HTU21D;52805;51.074;5.842;2022-10-16T06:37:39;14.53;86.77
66035;HTU21D;52805;51.074;5.842;2022-10-16T06:40:05;14.52;86.86
66035;HTU21D;52805;51.074;5.842;2022-10-16T06:42:31;14.51;86.84
66035;HTU21D;52805;51.074;5.842;2022-10-16T06:44:57;14.50;86.89
66035;HTU21D;52805;51.074;5.842;2022-10-16T06:47:22;14.50;86.93
66035;HTU21D;52805;51.074;5.842;2022-10-16T06:49:48;14.52;86.86
66035;HTU21D;52805;51.074;5.842;2022-10-16T06:52:13;14.53;86.77
66035;HTU21D;52805;51.074;5.842;2022-10-16T06:54:39;14.55;86.68
66035;HTU21D;52805;51.074;5.842;2022-10-16T06:57:05;14.55;86.73
66035;HTU21D;52805;51.074;5.842;2022-10-16T06:59:30;14.55;86.76
66035;HTU21D;52805;51.074;5.842;2022-10-16T07:01:56;14.56;86.70
66035;HTU21D;52805;51.074;5.842;2022-10-16T07:04:22;14.56;86.68
66035;HTU21D;52805;51.074;5.842;2022-10-16T07:06:47;14.57;86.67
66035;HTU21D;52805;51.074;5.842;2022-10-16T07:09:13;14.59;86.64
66035;HTU21D;52805;51.074;5.842;2022-10-16T07:11:40;14.60;86.64
66035;HTU21D;52805;51.074;5.842;2022-10-16T07:14:16;14.64;86.64
66035;HTU21D;52805;51.074;5.842;2022-10-16T07:16:42;14.66;86.60
66035;HTU21D;52805;51.074;5.842;2022-10-16T07:19:08;14.70;86.61
66035;HTU21D;52805;51.074;5.842;2022-10-16T07:21:34;14.71;86.57
66035;HTU21D;52805;51.074;5.842;2022-10-16T07:24:06;14.74;86.59
66035;HTU21D;52805;51.074;5.842;2022-10-16T07:26:35;14.81;86.46
66035;HTU21D;52805;51.074;5.842;2022-10-16T07:29:02;14.82;86.57
66035;HTU21D;52805;51.074;5.842;2022-10-16T07:31:28;14.85;86.61
66035;HTU21D;52805;51.074;5.842;2022-10-16T07:33:55;14.89;86.66
66035;HTU21D;52805;51.074;5.842;2022-10-16T07:36:21;14.94;86.58
66035;HTU21D;52805;51.074;5.842;2022-10-16T07:38:47;15.00;86.59
66035;HTU21D;52805;51.074;5.842;2022-10-16T07:41:19;15.06;86.36
66035;HTU21D;52805;51.074;5.842;2022-10-16T07:43:50;15.10;86.35
66035;HTU21D;52805;51.074;5.842;2022-10-16T07:46:17;15.17;86.13
66035;HTU21D;52805;51.074;5.842;2022-10-16T07:48:44;15.17;86.33
66035;HTU21D;52805;51.074;5.842;2022-10-16T07:51:15;15.22;86.29
66035;HTU21D;52805;51.074;5.842;2022-10-16T07:53:40;15.25;86.27
66035;HTU21D;52805;51.074;5.842;2022-10-16T07:56:07;15.30;86.19
66035;HTU21D;52805;51.074;5.842;2022-10-16T07:58:34;15.36;85.92
66035;HTU21D;52805;51.074;5.842;2022-10-16T08:01:07;15.40;85.87
66035;HTU21D;52805;51.074;5.842;2022-10-16T08:03:34;15.45;85.71
66035;HTU21D;52805;51.074;5.842;2022-10-16T08:06:01;15.48;85.67
66035;HTU21D;52805;51.074;5.842;2022-10-16T08:08:27;15.55;85.53
66035;HTU21D;52805;51.074;5.842;2022-10-16T08:10:54;15.59;85.40
66035;HTU21D;52805;51.074;5.842;2022-10-16T08:13:20;15.63;85.35
66035;HTU21D;52805;51.074;5.842;2022-10-16T08:15:46;15.69;85.30
66035;HTU21D;52805;51.074;5.842;2022-10-16T08:18:13;15.74;85.12
66035;HTU21D;52805;51.074;5.842;2022-10-16T08:20:41;15.80;84.95
66035;HTU21D;52805;51.074;5.842;2022-10-16T08:23:11;15.84;84.97
66035;HTU21D;52805;51.074;5.842;2022-10-16T08:25:38;15.87;84.90
66035;HTU21D;52805;51.074;5.842;2022-10-16T08:28:05;15.92;84.67
66035;HTU21D;52805;51.074;5.842;2022-10-16T08:30:31;15.96;84.56
66035;HTU21D;52805;51.074;5.842;2022-10-16T08:32:57;16.01;84.56
66035;HTU21D;52805;51.074;5.842;2022-10-16T08:35:24;16.06;84.48
66035;HTU21D;52805;51.074;5.842;2022-10-16T08:37:49;16.12;84.31
66035;HTU21D;52805;51.074;5.842;2022-10-16T08:40:29;16.19;83.85
66035;HTU21D;52805;51.074;5.842;2022-10-16T08:43:24;16.26;83.39
66035;HTU21D;52805;51.074;5.842;2022-10-16T08:48:47;16.32;82.84
66035;HTU21D;52805;51.074;5.842;2022-10-16T08:53:56;16.44;82.33
66035;HTU21D;52805;51.074;5.842;2022-10-16T08:56:23;16.50;82.04
66035;HTU21D;52805;51.074;5.842;2022-10-16T08:58:51;16.56;81.80
66035;HTU21D;52805;51.074;5.842;2022-10-16T09:01:20;16.57;81.69
66035;HTU21D;52805;51.074;5.842;2022-10-16T09:07:15;16.69;81.27
66035;HTU21D;52805;51.074;5.842;2022-10-16T09:10:20;16.74;80.93
66035;HTU21D;52805;51.074;5.842;2022-10-16T09:13:21;16.82;80.46
66035;HTU21D;52805;51.074;5.842;2022-10-16T09:16:26;16.88;80.11
66035;HTU21D;52805;51.074;5.842;2022-10-16T09:21:30;17.01;79.75
66035;HTU21D;52805;51.074;5.842;2022-10-16T09:24:13;17.04;79.84
66035;HTU21D;52805;51.074;5.842;2022-10-16T09:26:39;17.11;79.52
66035;HTU21D;52805;51.074;5.842;2022-10-16T09:29:05;17.15;79.17
66035;HTU21D;52805;51.074;5.842;2022-10-16T09:31:31;17.22;78.94
66035;HTU21D;52805;51.074;5.842;2022-10-16T09:34:02;17.23;78.59
66035;HTU21D;52805;51.074;5.842;2022-10-16T09:36:40;17.31;78.25
66035;HTU21D;52805;51.074;5.842;2022-10-16T09:39:11;17.33;78.22
66035;HTU21D;52805;51.074;5.842;2022-10-16T09:41:43;17.44;77.49
66035;HTU21D;52805;51.074;5.842;2022-10-16T09:44:19;17.41;77.46
66035;HTU21D;52805;51.074;5.842;2022-10-16T09:46:46;17.44;77.37
66035;HTU21D;52805;51.074;5.842;2022-10-16T09:49:25;17.47;77.29
66035;HTU21D;52805;51.074;5.842;2022-10-16T09:52:12;17.56;76.76
66035;HTU21D;52805;51.074;5.842;2022-10-16T09:54:58;17.58;76.79
66035;HTU21D;52805;51.074;5.842;2022-10-16T09:57:25;17.65;76.45
66035;HTU21D;52805;51.074;5.842;2022-10-16T09:59:53;17.68;76.29
66035;HTU21D;52805;51.074;5.842;2022-10-16T10:04:53;17.82;75.65
66035;HTU21D;52805;51.074;5.842;2022-10-16T10:09:55;17.88;75.60
66035;HTU21D;52805;51.074;5.842;2022-10-16T10:12:27;17.92;75.51
66035;HTU21D;52805;51.074;5.842;2022-10-16T10:14:56;17.99;74.92
66035;HTU21D;52805;51.074;5.842;2022-10-16T10:17:25;18.05;74.76
66035;HTU21D;52805;51.074;5.842;2022-10-16T10:52:36;18.81;71.15
66035;HTU21D;52805;51.074;5.842;2022-10-16T11:03:13;18.81;70.45
66035;HTU21D;52805;51.074;5.842;2022-10-16T11:05:58;18.73;70.51
66035;HTU21D;52805;51.074;5.842;2022-10-16T11:08:48;18.69;70.72
66035;HTU21D;52805;51.074;5.842;2022-10-16T11:12:25;18.68;70.44
66035;HTU21D;52805;51.074;5.842;2022-10-16T11:17:10;18.85;70.37
66035;HTU21D;52805;51.074;5.842;2022-10-16T11:30:23;19.15;69.73
66035;HTU21D;52805;51.074;5.842;2022-10-16T11:39:00;19.54;69.13
66035;HTU21D;52805;51.074;5.842;2022-10-16T11:46:57;19.92;68.07
66035;HTU21D;52805;51.074;5.842;2022-10-16T11:49:27;19.92;67.55
66035;HTU21D;52805;51.074;5.842;2022-10-16T11:52:12;19.82;67.75
66035;HTU21D;52805;51.074;5.842;2022-10-16T11:54:54;19.81;67.65
66035;HTU21D;52805;51.074;5.842;2022-10-16T11:57:28;19.85;67.52
66035;HTU21D;52805;51.074;5.842;2022-10-16T12:08:45;19.83;67.77
66035;HTU21D;52805;51.074;5.842;2022-10-16T12:14:07;19.98;67.51
66035;HTU21D;52805;51.074;5.842;2022-10-16T12:17:26;20.18;67.02
66035;HTU21D;52805;51.074;5.842;2022-10-16T12:19:43;20.20;66.66
66035;HTU21D;52805;51.074;5.842;2022-10-16T12:22:18;20.14;66.64
66035;HTU21D;52805;51.074;5.842;2022-10-16T12:24:44;20.03;66.68
66035;HTU21D;52805;51.074;5.842;2022-10-16T12:27:31;19.90;67.04
66035;HTU21D;52805;51.074;5.842;2022-10-16T12:30:03;19.87;67.07
66035;HTU21D;52805;51.074;5.842;2022-10-16T12:32:39;19.80;67.31
66035;HTU21D;52805;51.074;5.842;2022-10-16T12:35:18;19.80;67.21
66035;HTU21D;52805;51.074;5.842;2022-10-16T12:37:45;19.77;67.07
66035;HTU21D;52805;51.074;5.842;2022-10-16T12:43:26;19.75;67.39
66035;HTU21D;52805;51.074;5.842;2022-10-16T12:48:42;19.70;67.25
66035;HTU21D;52805;51.074;5.842;2022-10-16T13:18:38;20.50;64.21
66035;HTU21D;52805;51.074;5.842;2022-10-16T13:26:53;20.50;64.67
66035;HTU21D;52805;51.074;5.842;2022-10-16T13:29:22;20.47;64.87
66035;HTU21D;52805;51.074;5.842;2022-10-16T13:31:49;20.43;64.79
66035;HTU21D;52805;51.074;5.842;2022-10-16T13:34:20;20.39;64.94
66035;HTU21D;52805;51.074;5.842;2022-10-16T13:36:51;20.36;64.95
66035;HTU21D;52805;51.074;5.842;2022-10-16T13:39:26;20.35;65.02
66035;HTU21D;52805;51.074;5.842;2022-10-16T13:42:01;20.41;65.35
66035;HTU21D;52805;51.074;5.842;2022-10-16T13:44:41;20.40;65.62
66035;HTU21D;52805;51.074;5.842;2022-10-16T13:47:29;20.42;65.53
66035;HTU21D;52805;51.074;5.842;2022-10-16T13:50:04;20.40;65.58
66035;HTU21D;52805;51.074;5.842;2022-10-16T13:52:31;20.41;65.85
66035;HTU21D;52805;51.074;5.842;2022-10-16T13:54:57;20.42;66.07
66035;HTU21D;52805;51.074;5.842;2022-10-16T13:57:24;20.43;66.24
66035;HTU21D;52805;51.074;5.842;2022-10-16T13:59:51;20.42;66.14
66035;HTU21D;52805;51.074;5.842;2022-10-16T14:02:30;20.42;66.04
66035;HTU21D;52805;51.074;5.842;2022-10-16T14:04:57;20.36;66.14
66035;HTU21D;52805;51.074;5.842;2022-10-16T14:07:29;20.34;66.31
66035;HTU21D;52805;51.074;5.842;2022-10-16T14:10:02;20.32;66.46
66035;HTU21D;52805;51.074;5.842;2022-10-16T14:12:28;20.32;66.49
66035;HTU21D;52805;51.074;5.842;2022-10-16T14:14:56;20.32;66.20
66035;HTU21D;52805;51.074;5.842;2022-10-16T14:17:35;20.31;66.24
66035;HTU21D;52805;51.074;5.842;2022-10-16T14:20:04;20.28;66.42
66035;HTU21D;52805;51.074;5.842;2022-10-16T14:22:40;20.24;66.27
66035;HTU21D;52805;51.074;5.842;2022-10-16T14:30:27;20.17;66.39
66035;HTU21D;52805;51.074;5.842;2022-10-16T14:32:59;20.14;66.74
66035;HTU21D;52805;51.074;5.842;2022-10-16T14:37:53;20.06;67.92
66035;HTU21D;52805;51.074;5.842;2022-10-16T14:40:23;20.04;68.30
66035;HTU21D;52805;51.074;5.842;2022-10-16T14:42:49;20.02;68.45
66035;HTU21D;52805;51.074;5.842;2022-10-16T14:45:24;20.01;68.56
66035;HTU21D;52805;51.074;5.842;2022-10-16T14:47:58;20.01;68.89
66035;HTU21D;52805;51.074;5.842;2022-10-16T14:50:25;20.00;69.16
66035;HTU21D;52805;51.074;5.842;2022-10-16T14:52:51;19.96;69.47
66035;HTU21D;52805;51.074;5.842;2022-10-16T14:55:18;19.94;69.77
66035;HTU21D;52805;51.074;5.842;2022-10-16T14:57:44;19.88;70.16
66035;HTU21D;52805;51.074;5.842;2022-10-16T15:00:19;19.87;70.37
66035;HTU21D;52805;51.074;5.842;2022-10-16T15:02:48;19.85;70.58
66035;HTU21D;52805;51.074;5.842;2022-10-16T15:05:24;19.83;70.76
66035;HTU21D;52805;51.074;5.842;2022-10-16T15:07:53;19.79;70.87
66035;HTU21D;52805;51.074;5.842;2022-10-16T15:10:21;19.76;70.97
66035;HTU21D;52805;51.074;5.842;2022-10-16T15:12:47;19.74;71.15
66035;HTU21D;52805;51.074;5.842;2022-10-16T15:18:01;19.71;71.51
66035;HTU21D;52805;51.074;5.842;2022-10-16T15:20:30;19.70;71.61
66035;HTU21D;52805;51.074;5.842;2022-10-16T15:22:57;19.67;71.58
66035;HTU21D;52805;51.074;5.842;2022-10-16T15:25:27;19.66;71.58
66035;HTU21D;52805;51.074;5.842;2022-10-16T15:27:54;19.60;71.66
66035;HTU21D;52805;51.074;5.842;2022-10-16T15:30:20;19.59;71.67
66035;HTU21D;52805;51.074;5.842;2022-10-16T15:32:46;19.56;71.74
66035;HTU21D;52805;51.074;5.842;2022-10-16T15:35:12;19.56;71.80
66035;HTU21D;52805;51.074;5.842;2022-10-16T15:37:37;19.54;71.75
66035;HTU21D;52805;51.074;5.842;2022-10-16T15:40:03;19.51;71.79
66035;HTU21D;52805;51.074;5.842;2022-10-16T15:42:29;19.48;71.78
66035;HTU21D;52805;51.074;5.842;2022-10-16T15:44:54;19.47;71.87
66035;HTU21D;52805;51.074;5.842;2022-10-16T15:47:20;19.46;71.97
66035;HTU21D;52805;51.074;5.842;2022-10-16T15:49:46;19.42;71.97
66035;HTU21D;52805;51.074;5.842;2022-10-16T15:52:11;19.39;72.04
66035;HTU21D;52805;51.074;5.842;2022-10-16T15:54:37;19.35;72.15
66035;HTU21D;52805;51.074;5.842;2022-10-16T15:57:03;19.31;72.36
66035;HTU21D;52805;51.074;5.842;2022-10-16T15:59:28;19.27;72.50
66035;HTU21D;52805;51.074;5.842;2022-10-16T16:01:54;19.26;72.71
66035;HTU21D;52805;51.074;5.842;2022-10-16T16:04:20;19.21;72.96
66035;HTU21D;52805;51.074;5.842;2022-10-16T16:06:45;19.18;73.15
66035;HTU21D;52805;51.074;5.842;2022-10-16T16:09:12;19.12;73.37
66035;HTU21D;52805;51.074;5.842;2022-10-16T16:11:39;19.09;73.61
66035;HTU21D;52805;51.074;5.842;2022-10-16T16:14:06;19.03;73.78
66035;HTU21D;52805;51.074;5.842;2022-10-16T16:16:32;18.99;73.97
66035;HTU21D;52805;51.074;5.842;2022-10-16T16:19:03;18.96;74.15
66035;HTU21D;52805;51.074;5.842;2022-10-16T16:21:28;18.92;74.31
66035;HTU21D;52805;51.074;5.842;2022-10-16T16:23:54;18.87;74.49
66035;HTU21D;52805;51.074;5.842;2022-10-16T16:26:25;18.84;74.70
66035;HTU21D;52805;51.074;5.842;2022-10-16T16:28:52;18.80;74.88
66035;HTU21D;52805;51.074;5.842;2022-10-16T16:31:20;18.76;74.98
66035;HTU21D;52805;51.074;5.842;2022-10-16T16:33:46;18.72;75.04
66035;HTU21D;52805;51.074;5.842;2022-10-16T16:36:12;18.69;75.12
66035;HTU21D;52805;51.074;5.842;2022-10-16T16:38:38;18.66;75.23
66035;HTU21D;52805;51.074;5.842;2022-10-16T16:41:21;18.63;75.37
66035;HTU21D;52805;51.074;5.842;2022-10-16T16:43:47;18.57;75.42
66035;HTU21D;52805;51.074;5.842;2022-10-16T16:46:14;18.54;75.55
66035;HTU21D;52805;51.074;5.842;2022-10-16T16:48:41;18.51;75.60
66035;HTU21D;52805;51.074;5.842;2022-10-16T16:51:09;18.48;75.61
66035;HTU21D;52805;51.074;5.842;2022-10-16T16:53:37;18.44;75.63
66035;HTU21D;52805;51.074;5.842;2022-10-16T16:56:04;18.42;75.70
66035;HTU21D;52805;51.074;5.842;2022-10-16T16:58:31;18.41;75.69
66035;HTU21D;52805;51.074;5.842;2022-10-16T17:00:58;18.38;75.78
66035;HTU21D;52805;51.074;5.842;2022-10-16T17:03:28;18.36;75.82
66035;HTU21D;52805;51.074;5.842;2022-10-16T17:05:59;18.34;75.89
66035;HTU21D;52805;51.074;5.842;2022-10-16T17:08:25;18.32;75.89
66035;HTU21D;52805;51.074;5.842;2022-10-16T17:10:51;18.29;75.92
66035;HTU21D;52805;51.074;5.842;2022-10-16T17:13:29;18.27;76.00
66035;HTU21D;52805;51.074;5.842;2022-10-16T17:15:55;18.25;76.00
66035;HTU21D;52805;51.074;5.842;2022-10-16T17:18:22;18.25;75.99
66035;HTU21D;52805;51.074;5.842;2022-10-16T17:20:49;18.23;76.01
66035;HTU21D;52805;51.074;5.842;2022-10-16T17:23:17;18.21;75.92
66035;HTU21D;52805;51.074;5.842;2022-10-16T17:25:44;18.22;75.92
66035;HTU21D;52805;51.074;5.842;2022-10-16T17:28:12;18.19;75.93
66035;HTU21D;52805;51.074;5.842;2022-10-16T17:30:40;18.18;75.94
66035;HTU21D;52805;51.074;5.842;2022-10-16T17:33:06;18.15;75.96
66035;HTU21D;52805;51.074;5.842;2022-10-16T17:35:40;18.14;75.91
66035;HTU21D;52805;51.074;5.842;2022-10-16T17:38:06;18.12;75.96
66035;HTU21D;52805;51.074;5.842;2022-10-16T17:40:32;18.11;75.85
66035;HTU21D;52805;51.074;5.842;2022-10-16T17:42:58;18.11;75.75
66035;HTU21D;52805;51.074;5.842;2022-10-16T17:45:24;18.09;75.81
66035;HTU21D;52805;51.074;5.842;2022-10-16T17:47:49;18.07;75.84
66035;HTU21D;52805;51.074;5.842;2022-10-16T17:50:15;18.05;75.86
66035;HTU21D;52805;51.074;5.842;2022-10-16T17:52:41;18.04;75.92
66035;HTU21D;52805;51.074;5.842;2022-10-16T17:55:07;18.02;75.86
66035;HTU21D;52805;51.074;5.842;2022-10-16T17:57:32;18.02;75.81
66035;HTU21D;52805;51.074;5.842;2022-10-16T17:59:58;18.04;75.76
66035;HTU21D;52805;51.074;5.842;2022-10-16T18:02:24;18.05;75.67
66035;HTU21D;52805;51.074;5.842;2022-10-16T18:04:50;18.04;75.70
66035;HTU21D;52805;51.074;5.842;2022-10-16T18:07:17;18.04;75.85